M I D A S
Marine Information and Data Acquisition System
Tripno 1296 of the Zeeleeuw from 2007-06-20 06:34:19 to 2007-06-20 14:37:03
Back to CruiseResearch ActivitiesStationsMapUnderway DataData graphs

EquipmentUnitsComment
TimeDGPSUTC
LatitudeDGPSDM.mWGS84
LongitudeDGPSDM.mWGS84
HeadingGyrodeg 
SOGDGPSknotsSpeed over ground
COGDGPSdegCourse over ground
DepthEcho soundermeters200 kHz
Missing or incorrect values are displayed as -999
Navigation data collected by the RV Zeeleeuw from 2007-06-20 06:36:08 to 2007-06-20 14:48:29
                                                                                    Next 1000 lines
Time Latitude Longitude Heading SOG COG Depth
2007-06-20 06:36:18 51°13.598 2°56.093 114.1 0.8 299 9.5
2007-06-20 06:36:23 51°13.599 2°56.091 114.5 1.2 297 9.6
2007-06-20 06:36:28 51°13.6 2°56.087 114.9 1.7 297 9.6
2007-06-20 06:36:33 51°13.602 2°56.083 115.4 2.1 299 9.6
2007-06-20 06:36:38 51°13.603 2°56.078 115.8 2.5 297 9.7
2007-06-20 06:36:43 51°13.605 2°56.073 116.6 2.8 298 -999
2007-06-20 06:36:48 51°13.606 2°56.066 117.2 3.1 296 -999
2007-06-20 06:36:53 51°13.608 2°56.06 117.5 3.4 298 -999
2007-06-20 06:36:58 51°13.611 2°56.052 118 3.7 296 -999
2007-06-20 06:37:03 51°13.613 2°56.045 118.3 3.9 297 -999
2007-06-20 06:37:08 51°13.616 2°56.037 118.4 4.1 295 -999
2007-06-20 06:37:13 51°13.619 2°56.028 118.7 4.3 297 -999
2007-06-20 06:37:18 51°13.621 2°56.019 119.4 4.5 297 -999
2007-06-20 06:37:23 51°13.624 2°56.01 120.4 4.7 298 -999
2007-06-20 06:37:28 51°13.628 2°56.001 121.4 4.8 299 -999
2007-06-20 06:37:33 51°13.631 2°55.991 122.3 4.9 299 -999
2007-06-20 06:37:38 51°13.634 2°55.981 122.9 5.1 300 -999
2007-06-20 06:37:43 51°13.638 2°55.972 123.3 5.2 300 -999
2007-06-20 06:37:48 51°13.642 2°55.962 123.3 5.2 301 -999
2007-06-20 06:37:53 51°13.645 2°55.952 123.3 5.2 301 -999
2007-06-20 06:37:58 51°13.649 2°55.942 123.3 5.1 301 -999
2007-06-20 06:38:03 51°13.653 2°55.933 122.7 4.9 301 -999
2007-06-20 06:38:08 51°13.656 2°55.924 122 4.7 300 -999
2007-06-20 06:38:13 51°13.659 2°55.915 121.2 4.5 299 -999
2007-06-20 06:38:18 51°13.662 2°55.907 120.3 4.4 299 -999
2007-06-20 06:38:23 51°13.665 2°55.899 119.4 4.2 298 4.8
2007-06-20 06:38:28 51°13.668 2°55.891 118.4 4.1 298 4.9
2007-06-20 06:38:33 51°13.67 2°55.883 117.4 4 297 -999
2007-06-20 06:38:38 51°13.673 2°55.875 115.9 3.9 296 12.1
2007-06-20 06:38:43 51°13.675 2°55.867 114.6 3.7 295 -999
2007-06-20 06:38:48 51°13.677 2°55.86 113.2 3.6 295 11.3
2007-06-20 06:38:53 51°13.679 2°55.853 111.9 3.6 294 12.1
2007-06-20 06:38:58 51°13.682 2°55.846 110.8 3.5 294 5
2007-06-20 06:39:03 51°13.683 2°55.839 108.8 3.4 293 4.9
2007-06-20 06:39:08 51°13.685 2°55.832 107 3.3 292 12.2
2007-06-20 06:39:13 51°13.686 2°55.826 105.1 3.2 288 12.2
2007-06-20 06:39:18 51°13.688 2°55.819 102.9 3.1 287 12.1
2007-06-20 06:39:23 51°13.689 2°55.812 101.2 3.1 284 12.1
2007-06-20 06:39:28 51°13.689 2°55.806 98.7 3 283 12.2
2007-06-20 06:39:33 51°13.69 2°55.799 96.6 3 281 12.3
2007-06-20 06:39:38 51°13.691 2°55.793 94.7 3 281 12.5
2007-06-20 06:39:43 51°13.691 2°55.786 92.6 3 277 12.5
2007-06-20 06:39:48 51°13.692 2°55.78 90.7 2.9 277 12.8
2007-06-20 06:39:53 51°13.692 2°55.773 88.6 2.9 275 12.7
2007-06-20 06:39:58 51°13.692 2°55.767 86.3 2.8 273 -999
2007-06-20 06:40:03 51°13.692 2°55.761 84 2.7 272 12.8
2007-06-20 06:40:08 51°13.692 2°55.755 82.5 2.6 270 12.9
2007-06-20 06:40:13 51°13.692 2°55.75 81.2 2.5 269 12.9
2007-06-20 06:40:18 51°13.692 2°55.745 79.9 2.3 268 13
2007-06-20 06:40:23 51°13.692 2°55.74 78.4 2.2 266 12.9
2007-06-20 06:40:28 51°13.692 2°55.735 76.7 2.1 265 13
2007-06-20 06:40:33 51°13.692 2°55.731 75.3 2 265 13.2
2007-06-20 06:40:38 51°13.692 2°55.727 73.3 1.8 263 13.5
2007-06-20 06:40:43 51°13.691 2°55.723 71 1.6 261 13.5
2007-06-20 06:40:48 51°13.691 2°55.72 68 1.4 262 13.4
2007-06-20 06:40:53 51°13.691 2°55.718 65.3 1.1 261 13.2
2007-06-20 06:40:58 51°13.69 2°55.715 62.4 1 262 13.1
2007-06-20 06:41:03 51°13.69 2°55.713 59.6 0.8 259 13.1
2007-06-20 06:41:08 51°13.69 2°55.712 56.3 0.7 266 13.2
2007-06-20 06:41:13 51°13.69 2°55.711 53.1 0.4 270 13.5
2007-06-20 06:41:18 51°13.69 2°55.71 49.3 0.4 310 13.4
2007-06-20 06:41:23 51°13.691 2°55.71 46.4 0.4 354 13.4
2007-06-20 06:41:28 51°13.692 2°55.71 42.1 0.7 3 13.4
2007-06-20 06:41:33 51°13.693 2°55.711 37.3 0.9 8 13.5
2007-06-20 06:41:38 51°13.695 2°55.711 31.9 1.2 1 14
2007-06-20 06:41:43 51°13.697 2°55.711 26.2 1.4 7 15.3
2007-06-20 06:41:48 51°13.699 2°55.711 19.5 1.7 -999 15.7
2007-06-20 06:41:53 51°13.702 2°55.711 14.4 2.1 359 16
2007-06-20 06:41:58 51°13.706 2°55.71 8.3 2.4 353 16
2007-06-20 06:42:03 51°13.709 2°55.709 2.6 2.7 351 13.6
2007-06-20 06:42:08 51°13.713 2°55.708 357 3.1 348 13.1
2007-06-20 06:42:13 51°13.718 2°55.706 353.1 3.6 345 12.9
2007-06-20 06:42:18 51°13.723 2°55.703 350.5 3.9 343 13
2007-06-20 06:42:23 51°13.729 2°55.7 347.8 4.3 341 12.6
2007-06-20 06:42:28 51°13.735 2°55.697 345.5 4.6 339 12.8
2007-06-20 06:42:33 51°13.742 2°55.693 344 4.9 338 12.9
2007-06-20 06:42:38 51°13.749 2°55.688 342.8 4.3 338 12.7
2007-06-20 06:42:43 51°13.755 2°55.683 341.7 5.5 336 12.8
2007-06-20 06:42:48 51°13.763 2°55.678 340.5 5.7 336 12.7
2007-06-20 06:42:53 51°13.77 2°55.672 339.9 5.9 335 12.6
2007-06-20 06:42:58 51°13.778 2°55.667 339.9 6.1 336 12.5
2007-06-20 06:43:03 51°13.786 2°55.661 340.1 6.3 336 12.6
2007-06-20 06:43:08 51°13.794 2°55.655 340.1 6.4 336 12.5
2007-06-20 06:43:13 51°13.802 2°55.649 340.1 6.6 336 12.6
2007-06-20 06:43:18 51°13.811 2°55.643 340.4 6.7 338 12.6
2007-06-20 06:43:23 51°13.82 2°55.638 341.1 6.9 338 12.5
2007-06-20 06:43:28 51°13.829 2°55.632 341.4 6.9 339 12.5
2007-06-20 06:43:33 51°13.838 2°55.626 341.6 7 338 12.4
2007-06-20 06:43:38 51°13.847 2°55.62 341.6 7 338 12.3
2007-06-20 06:43:43 51°13.856 2°55.614 341.4 7.1 337 12.3
2007-06-20 06:43:48 51°13.865 2°55.608 341.4 7.2 338 12.2
2007-06-20 06:43:53 51°13.874 2°55.602 341.5 7.3 337 12.2
2007-06-20 06:43:58 51°13.884 2°55.596 341.5 7.3 338 12.2
2007-06-20 06:44:03 51°13.893 2°55.59 341.5 7.3 338 12.4
2007-06-20 06:44:08 51°13.903 2°55.583 341.6 7.4 337 12.5
2007-06-20 06:44:13 51°13.912 2°55.577 341.3 7.4 337 12.6
2007-06-20 06:44:18 51°13.922 2°55.571 341.3 7.4 338 12.4
2007-06-20 06:44:23 51°13.932 2°55.564 341.2 7.5 337 12.4
2007-06-20 06:44:28 51°13.941 2°55.558 341 7.5 337 12.4
2007-06-20 06:44:33 51°13.951 2°55.551 340.9 7.5 337 12.3
2007-06-20 06:44:38 51°13.96 2°55.545 340.9 7.5 338 12.3
2007-06-20 06:44:43 51°13.97 2°55.539 340.8 7.5 338 12.3
2007-06-20 06:44:48 51°13.98 2°55.533 341 7.5 338 12.4
2007-06-20 06:44:53 51°13.989 2°55.527 341 7.3 338 12.4
2007-06-20 06:44:58 51°13.998 2°55.521 340.8 7.2 338 12.4
2007-06-20 06:45:03 51°14.007 2°55.515 340.4 7 337 12.3
2007-06-20 06:45:08 51°14.016 2°55.509 339.9 6.9 337 12.3
2007-06-20 06:45:13 51°14.025 2°55.503 339.6 6.8 337 12.2
2007-06-20 06:45:18 51°14.033 2°55.497 339.3 6.7 336 12.2
2007-06-20 06:45:23 51°14.042 2°55.491 338.9 6.6 336 12.2
2007-06-20 06:45:28 51°14.05 2°55.485 338.7 6.6 336 12.3
2007-06-20 06:45:33 51°14.058 2°55.479 338.6 6.5 335 12.3
2007-06-20 06:45:38 51°14.066 2°55.473 338.6 6.4 336 12.3
2007-06-20 06:45:43 51°14.074 2°55.467 338.8 6.4 336 12.3
2007-06-20 06:45:48 51°14.082 2°55.461 338.8 6.3 335 12.3
2007-06-20 06:45:53 51°14.09 2°55.455 338.3 5.1 334 12.2
2007-06-20 06:45:58 51°14.097 2°55.449 337.7 5.1 334 12.2
2007-06-20 06:46:03 51°14.105 2°55.443 337 6.1 334 12.2
2007-06-20 06:46:08 51°14.112 2°55.437 336.5 6.1 333 12.2
2007-06-20 06:46:13 51°14.12 2°55.431 336.1 6.1 333 12.3
2007-06-20 06:46:18 51°14.127 2°55.425 336 6.2 333 12.2
2007-06-20 06:46:23 51°14.135 2°55.418 336 6.4 333 12.2
2007-06-20 06:46:28 51°14.143 2°55.411 336 6.6 332 12.2
2007-06-20 06:46:33 51°14.152 2°55.404 335.6 6.9 332 12.2
2007-06-20 06:46:38 51°14.16 2°55.396 335 6.9 330 12.2
2007-06-20 06:46:43 51°14.169 2°55.388 333.8 7.2 330 12.1
2007-06-20 06:46:48 51°14.178 2°55.379 332 7.4 327 12.2
2007-06-20 06:46:53 51°14.187 2°55.369 330.5 7.7 326 12.2
2007-06-20 06:46:58 51°14.196 2°55.359 328.9 7.9 324 12.2
2007-06-20 06:47:03 51°14.205 2°55.348 327.4 8.1 323 12.2
2007-06-20 06:47:08 51°14.214 2°55.337 326.3 8.3 321 12.1
2007-06-20 06:47:13 51°14.223 2°55.325 324.8 8.5 321 12.2
2007-06-20 06:47:18 51°14.232 2°55.313 323.5 8.7 319 12.2
2007-06-20 06:47:23 51°14.241 2°55.299 321.8 8.9 317 12.2
2007-06-20 06:47:28 51°14.25 2°55.285 320.4 9.1 315 12.2
2007-06-20 06:47:33 51°14.259 2°55.269 318 9.4 313 -999
2007-06-20 06:47:38 51°14.268 2°55.253 316.4 9.7 312 12.2
2007-06-20 06:47:43 51°14.277 2°55.237 315.7 10 311 12.2
2007-06-20 06:47:48 51°14.286 2°55.22 315.4 10.2 312 12.2
2007-06-20 06:47:53 51°14.295 2°55.203 315.2 10.4 310 12.3
2007-06-20 06:47:58 51°14.305 2°55.185 314 10.5 310 12.4
2007-06-20 06:48:03 51°14.314 2°55.166 313 10.7 309 12.4
2007-06-20 06:48:08 51°14.323 2°55.147 312.6 10.9 308 12.4
2007-06-20 06:48:13 51°14.333 2°55.128 312.1 11.2 308 12.3
2007-06-20 06:48:18 51°14.343 2°55.108 312 11.3 309 12.2
2007-06-20 06:48:23 51°14.353 2°55.088 312.3 11.4 309 12.2
2007-06-20 06:48:28 51°14.363 2°55.068 312.6 11.9 308 12.3
2007-06-20 06:48:33 51°14.373 2°55.046 312 12.2 307 12.1
2007-06-20 06:48:38 51°14.383 2°55.024 311 12.5 305 11.9
2007-06-20 06:48:43 51°14.393 2°55.001 309.9 12.7 304 11.9
2007-06-20 06:48:48 51°14.402 2°54.976 308.2 12.9 302 11.9
2007-06-20 06:48:53 51°14.411 2°54.951 306.4 13.1 300 11.9
2007-06-20 06:48:58 51°14.42 2°54.926 305.1 13.1 297 12
2007-06-20 06:49:03 51°14.427 2°54.899 302.3 13.2 293 12.2
2007-06-20 06:49:08 51°14.433 2°54.872 298.7 13.1 290 12
2007-06-20 06:49:13 51°14.438 2°54.844 295.1 13.1 286 11.7
2007-06-20 06:49:18 51°14.442 2°54.816 291.4 13.1 283 12
2007-06-20 06:49:23 51°14.445 2°54.788 287.4 13 278 12
2007-06-20 06:49:28 51°14.447 2°54.759 283.5 13 275 11.9
2007-06-20 06:49:33 51°14.447 2°54.731 278.9 12.9 270 12
2007-06-20 06:49:38 51°14.446 2°54.702 274.6 12.9 268 12.1
2007-06-20 06:49:43 51°14.444 2°54.674 270.8 13 265 11.9
2007-06-20 06:49:48 51°14.442 2°54.645 268.5 12.9 263 11.7
2007-06-20 06:49:53 51°14.439 2°54.618 266.2 12.9 259 12.2
2007-06-20 06:49:58 51°14.435 2°54.59 262.7 12.8 257 12.1
2007-06-20 06:50:03 51°14.429 2°54.564 259.7 12.6 252 11.8
2007-06-20 06:50:08 51°14.423 2°54.537 255.9 12.6 249 11.9
2007-06-20 06:50:13 51°14.416 2°54.512 252 12.6 248 11.9
2007-06-20 06:50:18 51°14.409 2°54.486 250 12.6 246 11.8
2007-06-20 06:50:23 51°14.402 2°54.461 248.4 12.5 245 11.1
2007-06-20 06:50:28 51°14.394 2°54.437 247.2 12.4 242 10.6
2007-06-20 06:50:33 51°14.386 2°54.413 245.7 12.4 243 10.5
2007-06-20 06:50:38 51°14.378 2°54.389 245.2 12.4 242 10.5
2007-06-20 06:50:43 51°14.37 2°54.364 244.8 12.4 243 10.4
2007-06-20 06:50:48 51°14.362 2°54.34 245 12.4 243 10.3
2007-06-20 06:50:53 51°14.354 2°54.315 245.3 12.5 244 10.2
2007-06-20 06:50:58 51°14.346 2°54.291 245.5 12.5 243 10.2
2007-06-20 06:51:03 51°14.339 2°54.266 245.9 12.5 244 10.2
2007-06-20 06:51:08 51°14.331 2°54.241 245.9 12.5 244 10.1
2007-06-20 06:51:13 51°14.323 2°54.216 246.4 12.5 243 10.1
2007-06-20 06:51:18 51°14.316 2°54.192 246.6 12.6 243 10.1
2007-06-20 06:51:23 51°14.308 2°54.167 246.3 12.5 244 10.1
2007-06-20 06:51:28 51°14.3 2°54.142 246.6 12.6 241 10
2007-06-20 06:51:33 51°14.292 2°54.117 245.7 12.6 243 10.1
2007-06-20 06:51:38 51°14.283 2°54.093 245.3 12.6 241 10
2007-06-20 06:51:43 51°14.275 2°54.068 244.8 12.6 241 10
2007-06-20 06:51:48 51°14.266 2°54.044 244.3 12.6 242 10
2007-06-20 06:51:53 51°14.258 2°54.019 244.3 12.7 241 10
2007-06-20 06:51:58 51°14.25 2°53.995 243.8 12.6 242 10.1
2007-06-20 06:52:03 51°14.241 2°53.97 244.4 12.6 241 10
2007-06-20 06:52:08 51°14.233 2°53.946 244.2 12.7 242 10
2007-06-20 06:52:13 51°14.225 2°53.921 244.2 12.6 242 10.1
2007-06-20 06:52:18 51°14.217 2°53.896 244.8 12.6 242 10.1
2007-06-20 06:52:23 51°14.209 2°53.871 244.8 12.7 243 10.1
2007-06-20 06:52:28 51°14.2 2°53.847 245.4 12.7 242 10.1
2007-06-20 06:52:33 51°14.193 2°53.822 245.5 12.7 243 10.2
2007-06-20 06:52:38 51°14.184 2°53.798 245.4 12.6 241 10.1
2007-06-20 06:52:43 51°14.176 2°53.773 245.3 12.7 241 10.1
2007-06-20 06:52:48 51°14.168 2°53.748 244.4 12.7 241 10.1
2007-06-20 06:52:53 51°14.159 2°53.724 244.4 12.7 241 10.1
2007-06-20 06:52:58 51°14.15 2°53.699 244 12.6 241 10.2
2007-06-20 06:53:03 51°14.142 2°53.675 244.1 12.7 241 10.3
2007-06-20 06:53:08 51°14.134 2°53.65 244.3 12.7 243 10.2
2007-06-20 06:53:13 51°14.126 2°53.625 245.4 12.8 242 10.3
2007-06-20 06:53:18 51°14.119 2°53.6 245.8 12.7 245 10.3
2007-06-20 06:53:23 51°14.11 2°53.575 246.9 12.7 243 10.4
2007-06-20 06:53:28 51°14.103 2°53.549 247.2 12.7 245 10.3
2007-06-20 06:53:33 51°14.095 2°53.524 247.4 12.7 243 10.4
2007-06-20 06:53:38 51°14.087 2°53.499 247.2 12.7 245 10.3
2007-06-20 06:53:43 51°14.079 2°53.474 247.2 12.7 243 10.4
2007-06-20 06:53:48 51°14.071 2°53.448 247.4 12.7 244 10.4
2007-06-20 06:53:53 51°14.064 2°53.423 247 12.7 244 10.4
2007-06-20 06:53:58 51°14.056 2°53.398 247.2 12.7 243 10.5
2007-06-20 06:54:03 51°14.048 2°53.372 246.9 12.8 245 10.5
2007-06-20 06:54:08 51°14.04 2°53.347 247.5 12.8 243 10.5
2007-06-20 06:54:13 51°14.033 2°53.322 247 12.7 244 10.6
2007-06-20 06:54:18 51°14.025 2°53.297 247.2 12.8 243 10.6
2007-06-20 06:54:23 51°14.017 2°53.271 246.9 12.8 244 10.6
2007-06-20 06:54:28 51°14.009 2°53.246 246.7 12.8 243 10.6
2007-06-20 06:54:33 51°14.001 2°53.22 246.6 12.8 245 10.7
2007-06-20 06:54:38 51°13.993 2°53.195 247.1 12.8 243 10.7
2007-06-20 06:54:43 51°13.985 2°53.17 247.2 12.9 244 10.7
2007-06-20 06:54:48 51°13.977 2°53.144 247.2 12.8 244 10.7
2007-06-20 06:54:53 51°13.969 2°53.119 247.5 12.8 243 10.8
2007-06-20 06:54:58 51°13.962 2°53.093 246.9 12.9 244 10.7
2007-06-20 06:55:03 51°13.954 2°53.068 247 12.9 244 10.8
2007-06-20 06:55:08 51°13.946 2°53.042 247.2 12.8 244 10.8
2007-06-20 06:55:13 51°13.938 2°53.016 246.9 12.9 245 10.9
2007-06-20 06:55:18 51°13.93 2°52.991 247.4 12.9 244 10.9
2007-06-20 06:55:23 51°13.923 2°52.965 247.5 12.9 244 10.9
2007-06-20 06:55:28 51°13.914 2°52.94 246.9 12.9 242 10.9
2007-06-20 06:55:33 51°13.906 2°52.915 246.1 12.8 242 11
2007-06-20 06:55:38 51°13.897 2°52.891 245 12.9 240 10.9
2007-06-20 06:55:43 51°13.889 2°52.865 243.8 12.8 243 11
2007-06-20 06:55:48 51°13.879 2°52.841 244 12.9 238 11
2007-06-20 06:55:53 51°13.871 2°52.816 242.8 12.9 242 11.1
2007-06-20 06:55:58 51°13.862 2°52.792 243.4 12.9 239 11
2007-06-20 06:56:03 51°13.853 2°52.767 243.1 12.9 241 11
2007-06-20 06:56:08 51°13.844 2°52.742 242.9 12.9 240 11.1
2007-06-20 06:56:13 51°13.835 2°52.718 243.1 12.9 240 11
2007-06-20 06:56:18 51°13.826 2°52.693 242.7 12.9 240 11.1
2007-06-20 06:56:23 51°13.817 2°52.668 242.7 12.9 240 11
2007-06-20 06:56:28 51°13.808 2°52.644 242.4 12.8 241 11.1
2007-06-20 06:56:33 51°13.799 2°52.619 242.9 12.9 240 11
2007-06-20 06:56:38 51°13.791 2°52.594 242.9 12.9 242 11.1
2007-06-20 06:56:43 51°13.781 2°52.57 243.6 12.9 239 11.1
2007-06-20 06:56:48 51°13.773 2°52.545 243 12.9 241 11.1
2007-06-20 06:56:53 51°13.764 2°52.521 243.1 12.8 239 11.2
2007-06-20 06:56:58 51°13.755 2°52.496 242.6 12.8 240 11.1
2007-06-20 06:57:03 51°13.746 2°52.472 242.3 12.8 239 11.1
2007-06-20 06:57:08 51°13.736 2°52.448 242.4 12.8 239 11.2
2007-06-20 06:57:13 51°13.727 2°52.423 242.3 12.9 239 11.2
2007-06-20 06:57:18 51°13.718 2°52.398 241.9 12.9 239 11.2
2007-06-20 06:57:23 51°13.709 2°52.374 242.4 12.8 239 11.2
2007-06-20 06:57:28 51°13.699 2°52.35 242.4 12.9 239 11.2
2007-06-20 06:57:33 51°13.69 2°52.325 242.4 13 240 11.2
2007-06-20 06:57:38 51°13.681 2°52.3 243.1 12.9 239 11.2
2007-06-20 06:57:43 51°13.673 2°52.276 243.2 12.9 241 11.3
2007-06-20 06:57:48 51°13.663 2°52.251 243.4 13 240 11.2
2007-06-20 06:57:53 51°13.655 2°52.226 243.4 12.9 241 11.3
2007-06-20 06:57:58 51°13.646 2°52.201 244 12.9 240 11.2
2007-06-20 06:58:03 51°13.637 2°52.176 243.8 12.9 241 11.3
2007-06-20 06:58:08 51°13.629 2°52.151 244 12.9 241 11.3
2007-06-20 06:58:13 51°13.62 2°52.126 243.9 12.9 242 11.3
2007-06-20 06:58:18 51°13.611 2°52.101 244 12.9 240 11.3
2007-06-20 06:58:23 51°13.602 2°52.076 243.7 12.9 241 11.2
2007-06-20 06:58:28 51°13.593 2°52.052 243.5 12.9 239 11.3
2007-06-20 06:58:33 51°13.585 2°52.027 243.2 12.9 240 11.3
2007-06-20 06:58:38 51°13.576 2°52.002 242.4 12.9 240 11.2
2007-06-20 06:58:43 51°13.567 2°51.977 242.9 12.9 240 11.3
2007-06-20 06:58:48 51°13.558 2°51.952 242.6 12.9 241 11.3
2007-06-20 06:58:53 51°13.549 2°51.928 243.1 12.9 240 11.3
2007-06-20 06:58:58 51°13.54 2°51.903 242.7 12.9 241 11.3
2007-06-20 06:59:03 51°13.531 2°51.878 243.1 13 239 11.2
2007-06-20 06:59:08 51°13.522 2°51.853 242.7 13 241 11.4
2007-06-20 06:59:13 51°13.513 2°51.828 242.9 13 239 11.3
2007-06-20 06:59:18 51°13.504 2°51.803 242.7 13 241 11.3
2007-06-20 06:59:23 51°13.495 2°51.779 242.7 12.9 240 11.4
2007-06-20 06:59:28 51°13.486 2°51.754 242.9 13 240 11.4
2007-06-20 06:59:33 51°13.477 2°51.729 242.8 13 240 11.4
2007-06-20 06:59:38 51°13.468 2°51.704 242.5 13 240 11.4
2007-06-20 06:59:43 51°13.459 2°51.679 242.5 13 241 11.4
2007-06-20 06:59:48 51°13.451 2°51.654 243.1 12.9 241 11.4
2007-06-20 06:59:53 51°13.442 2°51.629 243.1 13 241 11.4
2007-06-20 06:59:58 51°13.433 2°51.604 243.1 13 241 11.4
2007-06-20 07:00:03 51°13.424 2°51.579 243.4 13 240 11.4
2007-06-20 07:00:08 51°13.416 2°51.554 243.3 13 241 11.4
2007-06-20 07:00:13 51°13.407 2°51.529 243.6 12.9 240 11.4
2007-06-20 07:00:18 51°13.398 2°51.504 243.3 13 241 11.4
2007-06-20 07:00:23 51°13.389 2°51.48 243 12.9 240 11.4
2007-06-20 07:00:28 51°13.38 2°51.455 242.9 13 241 11.4
2007-06-20 07:00:33 51°13.371 2°51.43 242.9 13 240 11.4
2007-06-20 07:00:38 51°13.362 2°51.405 243 12.9 241 11.4
2007-06-20 07:00:43 51°13.353 2°51.38 243.3 13 240 11.4
2007-06-20 07:00:48 51°13.344 2°51.355 243 13 240 11.4
2007-06-20 07:00:53 51°13.335 2°51.33 243.1 12.9 240 11.4
2007-06-20 07:00:58 51°13.326 2°51.306 242.9 12.9 239 11.4
2007-06-20 07:01:03 51°13.317 2°51.281 242.6 13 240 11.4
2007-06-20 07:01:08 51°13.308 2°51.256 242.6 13 240 11.5
2007-06-20 07:01:13 51°13.299 2°51.231 243.1 12.9 240 11.4
2007-06-20 07:01:18 51°13.29 2°51.207 243.2 13 239 11.6
2007-06-20 07:01:23 51°13.282 2°51.182 243 12.9 241 11.6
2007-06-20 07:01:28 51°13.273 2°51.157 243.4 13 240 11.5
2007-06-20 07:01:33 51°13.264 2°51.132 243.1 12.9 241 11.5
2007-06-20 07:01:38 51°13.255 2°51.107 243.4 12.9 240 11.5
2007-06-20 07:01:43 51°13.247 2°51.082 243.4 13 242 11.4
2007-06-20 07:01:48 51°13.237 2°51.057 243.7 13 240 11.5
2007-06-20 07:01:53 51°13.229 2°51.032 243.7 12.9 242 11.5
2007-06-20 07:01:58 51°13.22 2°51.007 243.8 13 240 11.5
2007-06-20 07:02:03 51°13.211 2°50.982 243.6 13 241 11.6
2007-06-20 07:02:08 51°13.202 2°50.958 243.5 13 239 11.6
2007-06-20 07:02:13 51°13.193 2°50.933 243.3 13 240 11.7
2007-06-20 07:02:18 51°13.184 2°50.908 243 13 240 11.6
2007-06-20 07:02:23 51°13.175 2°50.883 242.9 12.9 240 11.7
2007-06-20 07:02:28 51°13.166 2°50.859 243.1 12.9 239 11.7
2007-06-20 07:02:33 51°13.157 2°50.834 243 12.9 241 11.7
2007-06-20 07:02:38 51°13.148 2°50.809 243.1 12.9 240 11.7
2007-06-20 07:02:43 51°13.139 2°50.785 243 12.9 240 11.6
2007-06-20 07:02:48 51°13.131 2°50.76 242.9 12.8 240 11.7
2007-06-20 07:02:53 51°13.122 2°50.736 243.1 12.9 240 11.7
2007-06-20 07:02:58 51°13.113 2°50.711 243.1 12.9 241 11.7
2007-06-20 07:03:03 51°13.104 2°50.686 243.4 12.8 240 11.7
2007-06-20 07:03:08 51°13.095 2°50.662 243.4 12.8 241 11.7
2007-06-20 07:03:13 51°13.086 2°50.637 243.7 12.8 240 11.7
2007-06-20 07:03:18 51°13.078 2°50.612 243.8 12.8 241 11.7
2007-06-20 07:03:23 51°13.069 2°50.588 243.8 12.8 241 11.7
2007-06-20 07:03:28 51°13.06 2°50.563 243.8 12.8 241 11.8
2007-06-20 07:03:33 51°13.052 2°50.538 243.9 12.9 240 11.7
2007-06-20 07:03:38 51°13.043 2°50.513 243.6 12.9 240 11.8
2007-06-20 07:03:43 51°13.034 2°50.489 243.5 12.8 241 11.8
2007-06-20 07:03:48 51°13.025 2°50.464 243.5 12.9 239 11.8
2007-06-20 07:03:53 51°13.016 2°50.44 242.9 12.8 241 11.8
2007-06-20 07:03:58 51°13.007 2°50.415 243.2 12.9 238 11.8
2007-06-20 07:04:03 51°12.998 2°50.391 242.7 12.8 241 11.8
2007-06-20 07:04:08 51°12.989 2°50.366 243.4 12.8 239 11.7
2007-06-20 07:04:13 51°12.981 2°50.341 243.4 12.8 242 11.8
2007-06-20 07:04:18 51°12.972 2°50.316 243.7 12.8 241 11.8
2007-06-20 07:04:23 51°12.964 2°50.292 244.1 12.8 242 11.8
2007-06-20 07:04:28 51°12.955 2°50.267 243.9 12.8 240 11.8
2007-06-20 07:04:33 51°12.946 2°50.243 243.6 12.8 240 11.8
2007-06-20 07:04:38 51°12.937 2°50.218 242.9 12.8 239 11.8
2007-06-20 07:04:43 51°12.928 2°50.193 242.6 12.8 241 11.8
2007-06-20 07:04:48 51°12.919 2°50.169 243.1 12.8 241 11.9
2007-06-20 07:04:53 51°12.911 2°50.144 243.5 12.8 241 11.9
2007-06-20 07:04:58 51°12.902 2°50.119 243.3 12.8 242 11.9
2007-06-20 07:05:03 51°12.894 2°50.095 243.8 12.7 241 11.9
2007-06-20 07:05:08 51°12.885 2°50.07 243.8 12.8 240 11.9
2007-06-20 07:05:13 51°12.876 2°50.045 243.2 12.8 241 11.9
2007-06-20 07:05:18 51°12.868 2°50.021 243.4 12.7 241 12
2007-06-20 07:05:23 51°12.859 2°49.996 243.4 12.8 241 12
2007-06-20 07:05:28 51°12.851 2°49.971 243.1 12.9 242 11.9
2007-06-20 07:05:33 51°12.843 2°49.946 244.4 12.8 243 11.8
2007-06-20 07:05:38 51°12.834 2°49.92 244.9 12.9 243 12
2007-06-20 07:05:43 51°12.826 2°49.895 245.1 12.8 244 11.9
2007-06-20 07:05:48 51°12.818 2°49.87 246 12.9 242 11.9
2007-06-20 07:05:53 51°12.81 2°49.844 245.9 12.9 244 11.9
2007-06-20 07:05:58 51°12.802 2°49.819 246.1 12.8 243 12
2007-06-20 07:06:03 51°12.794 2°49.794 246.5 12.9 243 12
2007-06-20 07:06:08 51°12.786 2°49.768 246.4 12.8 244 12
2007-06-20 07:06:13 51°12.778 2°49.743 246.5 12.8 243 12
2007-06-20 07:06:18 51°12.77 2°49.718 246 12.9 243 12
2007-06-20 07:06:23 51°12.762 2°49.693 246.1 12.8 243 12.1
2007-06-20 07:06:28 51°12.754 2°49.667 246.4 12.8 243 12
2007-06-20 07:06:33 51°12.746 2°49.642 246 12.8 243 12.1
2007-06-20 07:06:38 51°12.738 2°49.617 246 12.8 243 12.1
2007-06-20 07:06:43 51°12.73 2°49.592 245.8 12.8 244 12.1
2007-06-20 07:06:48 51°12.721 2°49.567 246.1 12.8 243 12.1
2007-06-20 07:06:53 51°12.714 2°49.541 246 12.8 244 12.2
2007-06-20 07:06:58 51°12.705 2°49.516 246.3 12.9 243 12.1
2007-06-20 07:07:03 51°12.697 2°49.491 246.3 12.9 243 12.1
2007-06-20 07:07:08 51°12.69 2°49.465 246.3 12.8 244 12.2
2007-06-20 07:07:13 51°12.681 2°49.44 246.5 12.9 242 12.1
2007-06-20 07:07:18 51°12.674 2°49.414 246 12.9 245 12.2
2007-06-20 07:07:23 51°12.666 2°49.389 246.8 12.9 242 12.2
2007-06-20 07:07:28 51°12.658 2°49.363 246.2 12.9 245 12.2
2007-06-20 07:07:33 51°12.65 2°49.338 246.3 12.9 243 12.2
2007-06-20 07:07:38 51°12.642 2°49.313 246.7 12.9 243 12.2
2007-06-20 07:07:43 51°12.633 2°49.287 246.3 13 243 12.2
2007-06-20 07:07:48 51°12.625 2°49.262 246 12.9 244 12.2
2007-06-20 07:07:53 51°12.617 2°49.236 246.7 12.9 243 12.2
2007-06-20 07:07:58 51°12.609 2°49.211 246.2 13 243 12.3
2007-06-20 07:08:03 51°12.601 2°49.185 246.3 12.9 243 12.3
2007-06-20 07:08:08 51°12.593 2°49.16 246.3 12.9 243 12.3
2007-06-20 07:08:13 51°12.585 2°49.135 246.3 12.9 244 12.3
2007-06-20 07:08:18 51°12.576 2°49.109 246.5 12.9 243 12.3
2007-06-20 07:08:23 51°12.569 2°49.084 246.6 12.9 244 12.4
2007-06-20 07:08:28 51°12.56 2°49.058 246.7 13 243 12.3
2007-06-20 07:08:33 51°12.553 2°49.032 246.7 13 244 12.3
2007-06-20 07:08:38 51°12.544 2°49.007 246.8 13 243 12.3
2007-06-20 07:08:43 51°12.537 2°48.981 246.7 13 245 12.3
2007-06-20 07:08:48 51°12.529 2°48.955 246.9 13 243 12.3
2007-06-20 07:08:53 51°12.521 2°48.929 246.9 12.9 244 12.4
2007-06-20 07:08:58 51°12.513 2°48.904 246.7 13 243 12.4
2007-06-20 07:09:03 51°12.505 2°48.878 246.5 13 244 12.4
2007-06-20 07:09:08 51°12.497 2°48.852 246.6 12.9 243 12.3
2007-06-20 07:09:13 51°12.489 2°48.827 246.6 13 243 12.4
2007-06-20 07:09:18 51°12.481 2°48.801 246 13 243 12.5
2007-06-20 07:09:23 51°12.473 2°48.776 246.2 13 243 12.4
2007-06-20 07:09:28 51°12.465 2°48.75 246.4 13 243 12.4
2007-06-20 07:09:33 51°12.457 2°48.724 246.4 13 244 12.5
2007-06-20 07:09:38 51°12.449 2°48.699 246.5 13 243 12.5
2007-06-20 07:09:43 51°12.441 2°48.673 246.6 13 244 12.5
2007-06-20 07:09:48 51°12.433 2°48.647 246.5 13 244 12.6
2007-06-20 07:09:53 51°12.425 2°48.622 246.6 13 243 12.4
2007-06-20 07:09:58 51°12.417 2°48.596 246.2 13 244 12.5
2007-06-20 07:10:03 51°12.408 2°48.57 246.2 13 243 12.5
2007-06-20 07:10:08 51°12.4 2°48.544 246.2 13 244 12.5
2007-06-20 07:10:13 51°12.393 2°48.519 246.5 13 243 12.5
2007-06-20 07:10:18 51°12.385 2°48.492 246.5 13.1 244 12.6
2007-06-20 07:10:23 51°12.377 2°48.467 246.9 13 244 12.6
2007-06-20 07:10:28 51°12.369 2°48.441 246.8 13.1 243 12.6
2007-06-20 07:10:33 51°12.36 2°48.416 246.7 13.1 244 12.6
2007-06-20 07:10:38 51°12.352 2°48.39 246.7 13 243 12.5
2007-06-20 07:10:43 51°12.344 2°48.364 246.6 13.1 243 12.6
2007-06-20 07:10:48 51°12.336 2°48.338 246.3 13.1 244 12.6
2007-06-20 07:10:53 51°12.328 2°48.312 246.6 13 243 12.6
2007-06-20 07:10:58 51°12.32 2°48.287 246.6 13.1 243 12.6
2007-06-20 07:11:03 51°12.312 2°48.261 246.3 13 243 12.6
2007-06-20 07:11:08 51°12.304 2°48.235 246 13 244 12.6
2007-06-20 07:11:13 51°12.296 2°48.21 246.1 13.1 243 12.6
2007-06-20 07:11:18 51°12.288 2°48.183 246.1 13 245 12.6
2007-06-20 07:11:23 51°12.279 2°48.158 246.7 13.1 243 12.6
2007-06-20 07:11:28 51°12.272 2°48.132 246.7 13.1 245 12.7
2007-06-20 07:11:33 51°12.264 2°48.106 246.8 13 244 12.8
2007-06-20 07:11:38 51°12.255 2°48.08 247.1 13.1 243 12.7
2007-06-20 07:11:43 51°12.247 2°48.054 246.6 13.1 244 12.8
2007-06-20 07:11:48 51°12.239 2°48.029 246.8 13 243 12.7
2007-06-20 07:11:53 51°12.231 2°48.003 246.4 13.1 243 12.7
2007-06-20 07:11:58 51°12.223 2°47.977 246.1 13.1 243 12.8
2007-06-20 07:12:03 51°12.215 2°47.951 246.2 13 243 12.8
2007-06-20 07:12:08 51°12.207 2°47.925 246.2 13.1 243 12.8
2007-06-20 07:12:13 51°12.199 2°47.899 245.9 13.1 245 12.8
2007-06-20 07:12:18 51°12.191 2°47.874 246.7 13 242 12.9
2007-06-20 07:12:23 51°12.183 2°47.848 246 13 245 12.8
2007-06-20 07:12:28 51°12.175 2°47.822 246 13 243 12.8
2007-06-20 07:12:33 51°12.167 2°47.796 246.5 13 244 12.8
2007-06-20 07:12:38 51°12.159 2°47.771 246.3 13 243 12.8
2007-06-20 07:12:43 51°12.151 2°47.745 246.3 13 244 12.8
2007-06-20 07:12:48 51°12.143 2°47.72 246.4 13 243 12.8
2007-06-20 07:12:53 51°12.135 2°47.694 246 13 244 12.7
2007-06-20 07:12:58 51°12.127 2°47.668 246.1 13 243 12.8
2007-06-20 07:13:03 51°12.119 2°47.642 246.1 13 244 12.8
2007-06-20 07:13:08 51°12.111 2°47.617 246.2 13 244 12.8
2007-06-20 07:13:13 51°12.103 2°47.591 246.5 13 244 12.8
2007-06-20 07:13:18 51°12.095 2°47.565 246.3 13 244 12.8
2007-06-20 07:13:23 51°12.087 2°47.539 246.3 13 244 12.9
2007-06-20 07:13:28 51°12.079 2°47.514 246.2 13.1 244 12.8
2007-06-20 07:13:33 51°12.071 2°47.488 246.3 12.9 244 12.8
2007-06-20 07:13:38 51°12.063 2°47.462 246.5 13 243 12.8
2007-06-20 07:13:43 51°12.055 2°47.436 246.2 13 244 12.9
2007-06-20 07:13:48 51°12.047 2°47.411 246.2 13 244 13
2007-06-20 07:13:53 51°12.039 2°47.385 246.2 13 244 12.9
2007-06-20 07:13:58 51°12.031 2°47.359 246.1 13 244 12.9
2007-06-20 07:14:03 51°12.023 2°47.334 245.9 13 242 12.7
2007-06-20 07:14:08 51°12.015 2°47.308 245.4 13 244 12.9
2007-06-20 07:14:13 51°12.006 2°47.283 245.9 12.9 243 12.9
2007-06-20 07:14:18 51°11.999 2°47.257 245.6 13 244 12.8
2007-06-20 07:14:23 51°11.991 2°47.231 245.9 13 244 12.9
2007-06-20 07:14:28 51°11.983 2°47.205 246.2 13 245 12.8
2007-06-20 07:14:33 51°11.975 2°47.18 246.5 12.9 243 12.9
2007-06-20 07:14:38 51°11.967 2°47.154 246.3 12.9 244 12.8
2007-06-20 07:14:43 51°11.959 2°47.129 246.1 13 243 12.8
2007-06-20 07:14:48 51°11.951 2°47.103 245.9 13 244 12.8
2007-06-20 07:14:53 51°11.943 2°47.077 246.1 12.9 244 12.9
2007-06-20 07:14:58 51°11.935 2°47.052 246.2 12.9 243 12.8
2007-06-20 07:15:03 51°11.927 2°47.026 246 13 244 12.7
2007-06-20 07:15:08 51°11.919 2°47 245.9 13 244 12.8
2007-06-20 07:15:13 51°11.911 2°46.974 245.9 13 244 12.8
2007-06-20 07:15:18 51°11.903 2°46.949 246 13 244 12.8
2007-06-20 07:15:23 51°11.895 2°46.923 246.4 13 244 12.7
2007-06-20 07:15:28 51°11.887 2°46.897 246 13 243 12.8
2007-06-20 07:15:33 51°11.879 2°46.871 246.1 13 244 12.7
2007-06-20 07:15:38 51°11.871 2°46.846 246 13 243 12.8
2007-06-20 07:15:43 51°11.863 2°46.82 245.8 13.1 245 12.7
2007-06-20 07:15:48 51°11.855 2°46.794 246.4 13 243 12.9
2007-06-20 07:15:53 51°11.847 2°46.768 246.1 13.1 244 12.8
2007-06-20 07:15:58 51°11.839 2°46.742 246.3 13.1 244 12.8
2007-06-20 07:16:03 51°11.831 2°46.716 246.7 13 244 12.8
2007-06-20 07:16:08 51°11.823 2°46.69 246.1 13 243 12.8
2007-06-20 07:16:13 51°11.815 2°46.665 245.3 13.1 243 12.9
2007-06-20 07:16:18 51°11.806 2°46.639 245 13.1 242 12.8
2007-06-20 07:16:23 51°11.798 2°46.614 244.7 13.1 241 12.8
2007-06-20 07:16:28 51°11.789 2°46.589 243.8 13.1 242 12.9
2007-06-20 07:16:33 51°11.78 2°46.563 243.6 13.1 241 12.8
2007-06-20 07:16:38 51°11.771 2°46.538 243.3 13 242 12.7
2007-06-20 07:16:43 51°11.762 2°46.513 243.7 13.1 241 12.9
2007-06-20 07:16:48 51°11.754 2°46.487 243.3 13.1 242 12.8
2007-06-20 07:16:53 51°11.745 2°46.462 243.8 13 242 12.8
2007-06-20 07:16:58 51°11.737 2°46.437 244.1 13.1 242 12.8
2007-06-20 07:17:03 51°11.728 2°46.411 244 13.1 242 12.7
2007-06-20 07:17:08 51°11.72 2°46.385 244.5 13 243 12.8
2007-06-20 07:17:13 51°11.712 2°46.36 244.7 13 242 12.8
2007-06-20 07:17:18 51°11.704 2°46.334 244.7 13.1 243 12.7
2007-06-20 07:17:23 51°11.695 2°46.309 244.6 13 242 12.8
2007-06-20 07:17:28 51°11.687 2°46.283 244.5 13 242 12.7
2007-06-20 07:17:33 51°11.678 2°46.258 244.2 13.1 242 12.7
2007-06-20 07:17:38 51°11.67 2°46.232 244 13.1 242 12.6
2007-06-20 07:17:43 51°11.661 2°46.207 244.4 13 242 12.7
2007-06-20 07:17:48 51°11.653 2°46.181 244.3 13 243 12.7
2007-06-20 07:17:53 51°11.645 2°46.156 244.3 13 242 12.7
2007-06-20 07:17:58 51°11.636 2°46.13 244.5 13.1 242 12.6
2007-06-20 07:18:03 51°11.628 2°46.105 244.1 13.1 242 12.6
2007-06-20 07:18:08 51°11.62 2°46.079 244.2 13 242 12.5
2007-06-20 07:18:13 51°11.611 2°46.054 244.2 13.1 242 12.6
2007-06-20 07:18:18 51°11.603 2°46.028 243.9 13.1 243 12.6
2007-06-20 07:18:23 51°11.595 2°46.002 244.5 13 243 12.5
2007-06-20 07:18:28 51°11.586 2°45.977 244.5 13 243 12.5
2007-06-20 07:18:33 51°11.578 2°45.951 244.9 13 243 12.5
2007-06-20 07:18:38 51°11.57 2°45.926 245 13 243 12.5
2007-06-20 07:18:43 51°11.562 2°45.9 244.6 13 243 12.4
2007-06-20 07:18:48 51°11.553 2°45.875 244.3 13 242 12.4
2007-06-20 07:18:53 51°11.545 2°45.85 243.9 12.9 243 12.5
2007-06-20 07:18:58 51°11.537 2°45.825 244.4 12.9 241 12.4
2007-06-20 07:19:03 51°11.529 2°45.799 244.3 12.9 243 12.4
2007-06-20 07:19:08 51°11.52 2°45.774 243.9 13 242 12.3
2007-06-20 07:19:13 51°11.512 2°45.749 244.3 12.9 242 12.3
2007-06-20 07:19:18 51°11.503 2°45.724 244.1 13 242 12.4
2007-06-20 07:19:23 51°11.495 2°45.698 243.4 12.9 243 12.3
2007-06-20 07:19:28 51°11.487 2°45.673 244.3 12.9 241 12.2
2007-06-20 07:19:33 51°11.478 2°45.647 243.7 13 243 12.2
2007-06-20 07:19:38 51°11.47 2°45.622 243.8 12.9 243 12.3
2007-06-20 07:19:43 51°11.462 2°45.597 244.2 12.9 242 12.2
2007-06-20 07:19:48 51°11.454 2°45.572 244 12.9 243 12.3
2007-06-20 07:19:53 51°11.445 2°45.546 244.2 13 242 12.2
2007-06-20 07:19:58 51°11.437 2°45.521 243.9 12.9 243 12.2
2007-06-20 07:20:03 51°11.429 2°45.495 244.4 13 242 12.2
2007-06-20 07:20:08 51°11.421 2°45.47 243.8 13 244 12.2
2007-06-20 07:20:13 51°11.412 2°45.444 244.3 13 242 12.2
2007-06-20 07:20:18 51°11.404 2°45.419 244.5 13 243 12.1
2007-06-20 07:20:23 51°11.396 2°45.393 244.3 13 243 12.1
2007-06-20 07:20:28 51°11.388 2°45.367 244.5 13 244 12.1
2007-06-20 07:20:33 51°11.379 2°45.342 244.6 13.1 242 12.1
2007-06-20 07:20:38 51°11.371 2°45.316 243.9 13.1 244 11.9
2007-06-20 07:20:43 51°11.362 2°45.291 244.2 13 242 12
2007-06-20 07:20:48 51°11.355 2°45.265 244.1 13 244 12
2007-06-20 07:20:53 51°11.346 2°45.24 244.1 13.1 242 11.9
2007-06-20 07:20:58 51°11.338 2°45.214 244 13.1 244 12
2007-06-20 07:21:03 51°11.329 2°45.188 244.5 13.1 242 11.9
2007-06-20 07:21:08 51°11.322 2°45.162 244.5 13.1 244 12
2007-06-20 07:21:13 51°11.313 2°45.137 244.7 13.1 241 12
2007-06-20 07:21:18 51°11.305 2°45.111 244.2 13.1 244 11.9
2007-06-20 07:21:23 51°11.296 2°45.086 244.2 13.1 242 11.8
2007-06-20 07:21:28 51°11.288 2°45.06 244 13.1 242 11.8
2007-06-20 07:21:33 51°11.279 2°45.035 243.8 13.1 242 11.9
2007-06-20 07:21:38 51°11.271 2°45.009 243.7 13.1 242 11.8
2007-06-20 07:21:43 51°11.263 2°44.983 243.8 13.2 243 11.7
2007-06-20 07:21:48 51°11.255 2°44.957 244 13.1 243 11.8
2007-06-20 07:21:53 51°11.246 2°44.932 244.4 13.1 243 11.8
2007-06-20 07:21:58 51°11.238 2°44.906 244.5 13.1 243 11.6
2007-06-20 07:22:03 51°11.23 2°44.88 244.5 13.2 243 11.7
2007-06-20 07:22:08 51°11.221 2°44.854 244.5 13.1 242 11.7
2007-06-20 07:22:13 51°11.213 2°44.828 244.2 13.1 243 11.7
2007-06-20 07:22:18 51°11.205 2°44.803 244.5 13.1 243 11.6
2007-06-20 07:22:23 51°11.196 2°44.777 244.5 13.2 243 11.6
2007-06-20 07:22:28 51°11.188 2°44.751 244.4 13.3 243 11.6
2007-06-20 07:22:33 51°11.18 2°44.725 244.4 13.1 243 11.6
2007-06-20 07:22:38 51°11.172 2°44.699 244.5 13.1 243 11.5
2007-06-20 07:22:43 51°11.163 2°44.673 244 13.2 242 11.5
2007-06-20 07:22:48 51°11.155 2°44.647 243.9 13.3 244 11.5
2007-06-20 07:22:53 51°11.147 2°44.621 244.5 13.1 242 11.5
2007-06-20 07:22:58 51°11.138 2°44.596 244.5 13.1 243 11.4
2007-06-20 07:23:03 51°11.13 2°44.57 244.2 13.2 242 11.5
2007-06-20 07:23:08 51°11.121 2°44.544 244.2 13.2 243 11.4
2007-06-20 07:23:13 51°11.113 2°44.518 244.5 13.1 242 11.4
2007-06-20 07:23:18 51°11.105 2°44.492 244.5 13.1 243 11.3
2007-06-20 07:23:23 51°11.096 2°44.467 244.3 13.1 242 11.3
2007-06-20 07:23:28 51°11.088 2°44.441 244.4 13.1 243 11.3
2007-06-20 07:23:33 51°11.08 2°44.415 244.2 13.2 242 11.3
2007-06-20 07:23:38 51°11.072 2°44.389 244.1 13.1 244 11.3
2007-06-20 07:23:43 51°11.063 2°44.363 244.5 13.1 242 11.2
2007-06-20 07:23:48 51°11.055 2°44.337 244 13.1 243 11.2
2007-06-20 07:23:53 51°11.047 2°44.312 244.1 13.1 242 11.2
2007-06-20 07:23:58 51°11.039 2°44.286 244.4 13.1 243 11.2
2007-06-20 07:24:03 51°11.03 2°44.26 244.3 13.1 242 11.1
2007-06-20 07:24:08 51°11.022 2°44.235 244 13.1 243 11
2007-06-20 07:24:13 51°11.014 2°44.209 244 13.1 243 11.1
2007-06-20 07:24:18 51°11.005 2°44.183 244.5 13.2 242 11.1
2007-06-20 07:24:23 51°10.997 2°44.157 243.9 13.1 243 11
2007-06-20 07:24:28 51°10.988 2°44.132 244.4 13.1 241 11
2007-06-20 07:24:33 51°10.98 2°44.106 243.7 13.2 243 10.9
2007-06-20 07:24:38 51°10.971 2°44.08 243.8 13.2 243 10.9
2007-06-20 07:24:43 51°10.963 2°44.054 244.1 13.1 242 10.9
2007-06-20 07:24:48 51°10.955 2°44.028 244 13.2 243 10.9
2007-06-20 07:24:53 51°10.946 2°44.003 244 13.2 242 10.9
2007-06-20 07:24:58 51°10.938 2°43.976 243.8 13.2 243 10.9
2007-06-20 07:25:03 51°10.929 2°43.95 244.1 13.3 243 10.9
2007-06-20 07:25:08 51°10.921 2°43.924 244.4 13.2 243 10.9
2007-06-20 07:25:13 51°10.913 2°43.898 244.5 13.2 244 10.8
2007-06-20 07:25:18 51°10.905 2°43.872 244.9 13.2 244 10.8
2007-06-20 07:25:23 51°10.897 2°43.846 244.9 13.2 244 10.8
2007-06-20 07:25:28 51°10.889 2°43.82 244.9 13.3 244 10.7
2007-06-20 07:25:33 51°10.881 2°43.793 245.2 13.3 244 10.7
2007-06-20 07:25:38 51°10.873 2°43.767 245.1 13.2 243 10.7
2007-06-20 07:25:43 51°10.864 2°43.742 244.7 13.3 243 10.6
2007-06-20 07:25:48 51°10.856 2°43.716 244.5 13.2 243 10.6
2007-06-20 07:25:53 51°10.847 2°43.69 244 13.3 242 10.6
2007-06-20 07:25:58 51°10.839 2°43.664 243.6 13.3 243 10.6
2007-06-20 07:26:03 51°10.831 2°43.638 244.1 13.2 243 10.5
2007-06-20 07:26:08 51°10.822 2°43.612 244.5 13.2 241 10.6
2007-06-20 07:26:13 51°10.813 2°43.586 243.3 13.3 241 10.6
2007-06-20 07:26:18 51°10.804 2°43.561 242.3 13.2 239 10.5
2007-06-20 07:26:23 51°10.794 2°43.536 241 13.2 238 10.4
2007-06-20 07:26:28 51°10.785 2°43.512 239.8 13.2 238 10.4
2007-06-20 07:26:33 51°10.775 2°43.487 239.3 13.2 237 10.4
2007-06-20 07:26:38 51°10.765 2°43.463 238.7 13.2 238 10.3
2007-06-20 07:26:43 51°10.755 2°43.438 238.6 13.2 237 10.4
2007-06-20 07:26:48 51°10.745 2°43.413 238.6 13.2 238 10.2
2007-06-20 07:26:53 51°10.735 2°43.389 238.5 13.1 236 10.3
2007-06-20 07:26:58 51°10.726 2°43.364 238.2 13.2 238 10.2
2007-06-20 07:27:03 51°10.716 2°43.34 238.5 13.2 237 10.2
2007-06-20 07:27:08 51°10.706 2°43.316 238.7 13.1 238 10.1
2007-06-20 07:27:13 51°10.696 2°43.292 238.4 13.2 236 10
2007-06-20 07:27:18 51°10.686 2°43.267 237.9 13.2 238 10
2007-06-20 07:27:23 51°10.676 2°43.243 238.5 13.1 236 10
2007-06-20 07:27:28 51°10.666 2°43.218 238.5 13.1 238 9.9
2007-06-20 07:27:33 51°10.656 2°43.194 238.4 13.1 237 9.9
2007-06-20 07:27:38 51°10.646 2°43.169 238.7 13.2 237 9.9
2007-06-20 07:27:43 51°10.637 2°43.145 238.7 13.2 238 9.7
2007-06-20 07:27:48 51°10.627 2°43.12 239.6 13.2 237 9.7
2007-06-20 07:27:53 51°10.617 2°43.095 239.3 13.2 237 9.8
2007-06-20 07:27:58 51°10.607 2°43.071 238.8 13.2 239 9.8
2007-06-20 07:28:03 51°10.598 2°43.046 239.5 13 238 9.8
2007-06-20 07:28:08 51°10.588 2°43.022 239.4 13.2 238 9.6
2007-06-20 07:28:13 51°10.578 2°42.997 239.1 13.3 238 9.5
2007-06-20 07:28:18 51°10.569 2°42.972 239.5 13.1 239 9.7
2007-06-20 07:28:23 51°10.559 2°42.948 239.8 13 238 9.6
2007-06-20 07:28:28 51°10.55 2°42.923 239.5 13.2 238 9.4
2007-06-20 07:28:33 51°10.54 2°42.898 239 13.2 239 9.4
2007-06-20 07:28:38 51°10.53 2°42.873 239.5 13.2 238 9.4
2007-06-20 07:28:43 51°10.521 2°42.848 239.4 13.2 239 9.4
2007-06-20 07:28:48 51°10.512 2°42.824 239.8 13.2 239 9.4
2007-06-20 07:28:53 51°10.502 2°42.799 239.7 13.2 240 9.4
2007-06-20 07:28:58 51°10.493 2°42.774 240.1 13.2 238 9.3
2007-06-20 07:29:03 51°10.483 2°42.749 239.4 13.3 239 9.2
2007-06-20 07:29:08 51°10.473 2°42.724 239.5 13.2 238 9.3
2007-06-20 07:29:13 51°10.464 2°42.7 239.6 13.1 238 9.2
2007-06-20 07:29:18 51°10.454 2°42.675 238.8 13.2 238 9.4
2007-06-20 07:29:23 51°10.444 2°42.65 239.1 13.2 237 9.3
2007-06-20 07:29:28 51°10.434 2°42.626 238.7 13.2 238 9.3
2007-06-20 07:29:33 51°10.425 2°42.601 238.7 13.2 238 9.2
2007-06-20 07:29:38 51°10.415 2°42.576 238.7 13.3 238 9.2
2007-06-20 07:29:43 51°10.405 2°42.551 238.9 13.3 238 9.2
2007-06-20 07:29:48 51°10.395 2°42.527 239 13.2 238 9.2
2007-06-20 07:29:53 51°10.386 2°42.502 239.3 13.2 237 9.2
2007-06-20 07:29:58 51°10.376 2°42.477 238.9 13.3 239 9.1
2007-06-20 07:30:03 51°10.367 2°42.452 239.1 13.3 238 9.1
2007-06-20 07:30:08 51°10.357 2°42.427 239.5 13.3 239 9.1
2007-06-20 07:30:13 51°10.347 2°42.402 239.8 13.3 238 9
2007-06-20 07:30:18 51°10.338 2°42.377 240 13.3 239 9.1
2007-06-20 07:30:23 51°10.328 2°42.352 239.9 13.2 238 9.1
2007-06-20 07:30:28 51°10.319 2°42.327 239.5 13.3 239 9.1
2007-06-20 07:30:33 51°10.309 2°42.302 239.4 13.4 237 9
2007-06-20 07:30:38 51°10.299 2°42.277 239 13.3 238 9
2007-06-20 07:30:43 51°10.289 2°42.252 238.8 13.2 237 9
2007-06-20 07:30:48 51°10.28 2°42.228 238.7 13.2 238 9
2007-06-20 07:30:53 51°10.27 2°42.203 238.5 13.3 237 8.9
2007-06-20 07:30:58 51°10.26 2°42.178 238.6 13.3 239 8.8
2007-06-20 07:31:03 51°10.25 2°42.154 238.9 13.2 237 8.9
2007-06-20 07:31:08 51°10.24 2°42.129 239.2 13.1 238 8.9
2007-06-20 07:31:13 51°10.231 2°42.104 238.7 13.2 238 8.9
2007-06-20 07:31:18 51°10.221 2°42.079 239.2 13.3 239 8.9
2007-06-20 07:31:23 51°10.212 2°42.054 239.4 13.2 239 8.8
2007-06-20 07:31:28 51°10.202 2°42.029 239.8 13.2 239 8.8
2007-06-20 07:31:33 51°10.193 2°42.005 239.8 13.1 239 8.9
2007-06-20 07:31:38 51°10.183 2°41.98 240.2 13.2 239 8.8
2007-06-20 07:31:43 51°10.174 2°41.954 240 13.2 240 8.8
2007-06-20 07:31:48 51°10.165 2°41.929 240.9 13.2 239 8.8
2007-06-20 07:31:53 51°10.156 2°41.904 240.9 13.2 241 8.9
2007-06-20 07:31:58 51°10.147 2°41.878 241.6 13.3 241 8.7
2007-06-20 07:32:03 51°10.138 2°41.852 242.3 13.3 242 8.8
2007-06-20 07:32:08 51°10.129 2°41.826 242.9 13.2 242 8.8
2007-06-20 07:32:13 51°10.121 2°41.801 243.2 13.2 242 8.7
2007-06-20 07:32:18 51°10.112 2°41.775 243.1 13.4 242 8.7
2007-06-20 07:32:23 51°10.104 2°41.749 243 13.3 242 8.8
2007-06-20 07:32:28 51°10.095 2°41.723 243.1 13.2 243 8.7
2007-06-20 07:32:33 51°10.086 2°41.697 243.6 13.3 242 8.8
2007-06-20 07:32:38 51°10.078 2°41.671 243.7 13.3 244 8.7
2007-06-20 07:32:43 51°10.07 2°41.645 244.5 13.3 243 8.7
2007-06-20 07:32:48 51°10.062 2°41.618 245 13.2 245 8.7
2007-06-20 07:32:53 51°10.054 2°41.592 245.3 13.3 244 8.7
2007-06-20 07:32:58 51°10.046 2°41.565 245.4 13.3 245 8.8
2007-06-20 07:33:03 51°10.038 2°41.539 245.8 13.3 244 8.8
2007-06-20 07:33:08 51°10.03 2°41.512 245.8 13.3 245 8.8
2007-06-20 07:33:13 51°10.022 2°41.486 245.7 13.3 243 8.9
2007-06-20 07:33:18 51°10.014 2°41.46 245 13.3 243 8.8
2007-06-20 07:33:23 51°10.005 2°41.434 244.4 13.3 243 8.9
2007-06-20 07:33:28 51°9.997 2°41.407 244.1 13.3 243 8.7
2007-06-20 07:33:33 51°9.988 2°41.381 243.7 13.4 242 8.7
2007-06-20 07:33:38 51°9.98 2°41.355 243.2 13.3 244 8.8
2007-06-20 07:33:43 51°9.971 2°41.329 243.8 13.3 242 8.7
2007-06-20 07:33:48 51°9.963 2°41.303 243.2 13.4 243 8.7
2007-06-20 07:33:53 51°9.954 2°41.276 243.2 13.4 244 8.8
2007-06-20 07:33:58 51°9.946 2°41.25 243.9 13.3 244 8.7
2007-06-20 07:34:03 51°9.939 2°41.223 244.7 13.3 245 8.7
2007-06-20 07:34:08 51°9.931 2°41.196 245.7 13.4 245 8.8
2007-06-20 07:34:13 51°9.923 2°41.169 245.9 13.4 246 8.7
2007-06-20 07:34:18 51°9.916 2°41.142 246.8 13.3 246 8.7
2007-06-20 07:34:23 51°9.909 2°41.115 247.3 13.3 247 8.8
2007-06-20 07:34:28 51°9.901 2°41.088 247.4 13.4 246 8.7
2007-06-20 07:34:33 51°9.893 2°41.061 247.3 13.4 246 8.8
2007-06-20 07:34:38 51°9.885 2°41.035 247.3 13.3 245 8.8
2007-06-20 07:34:43 51°9.877 2°41.008 246.1 13.4 244 8.9
2007-06-20 07:34:48 51°9.87 2°40.981 245.4 13.4 245 8.9
2007-06-20 07:34:53 51°9.861 2°40.955 245.8 13.3 244 8.8
2007-06-20 07:34:58 51°9.854 2°40.928 245.5 13.3 245 8.7
2007-06-20 07:35:03 51°9.846 2°40.902 245.4 13.3 245 8.8
2007-06-20 07:35:08 51°9.837 2°40.875 245.4 13.4 244 8.8
2007-06-20 07:35:13 51°9.83 2°40.848 245.3 13.4 246 8.8
2007-06-20 07:35:18 51°9.822 2°40.822 246 13.3 244 8.7
2007-06-20 07:35:23 51°9.814 2°40.795 245.8 13.3 246 8.8
2007-06-20 07:35:28 51°9.806 2°40.768 245.7 13.4 245 8.8
2007-06-20 07:35:33 51°9.799 2°40.741 246 13.4 247 8.8
2007-06-20 07:35:38 51°9.791 2°40.714 246.4 13.4 245 8.7
2007-06-20 07:35:43 51°9.783 2°40.688 246.6 13.4 246 8.8
2007-06-20 07:35:48 51°9.776 2°40.661 246.4 13.3 246 8.8
2007-06-20 07:35:53 51°9.768 2°40.634 246.7 13.3 245 8.8
2007-06-20 07:35:58 51°9.76 2°40.607 246.4 13.4 246 8.8
2007-06-20 07:36:03 51°9.752 2°40.581 246.5 13.3 245 8.8
2007-06-20 07:36:08 51°9.745 2°40.553 246 13.4 246 8.7
2007-06-20 07:36:13 51°9.737 2°40.527 246.1 13.4 245 8.8
2007-06-20 07:36:18 51°9.73 2°40.5 246.7 13.3 247 8.9
2007-06-20 07:36:23 51°9.722 2°40.473 247.1 13.3 246 8.7
2007-06-20 07:36:28 51°9.715 2°40.446 247.4 13.4 246 8.8
2007-06-20 07:36:33 51°9.707 2°40.419 247.3 13.3 246 8.9
2007-06-20 07:36:38 51°9.7 2°40.392 247.1 13.3 246 8.8
2007-06-20 07:36:43 51°9.692 2°40.366 246.9 13.2 246 8.8
2007-06-20 07:36:48 51°9.685 2°40.339 246.9 13.3 245 8.8
2007-06-20 07:36:53 51°9.677 2°40.312 246.4 13.3 246 8.8
2007-06-20 07:36:58 51°9.669 2°40.285 246 13.3 244 8.8
2007-06-20 07:37:03 51°9.661 2°40.259 245.6 13.3 245 8.9
2007-06-20 07:37:08 51°9.653 2°40.232 245.7 13.2 244 8.8
2007-06-20 07:37:13 51°9.645 2°40.206 245.7 13.2 245 8.7
2007-06-20 07:37:18 51°9.638 2°40.179 245.5 13.3 245 8.8
2007-06-20 07:37:23 51°9.63 2°40.153 245.6 13.3 245 8.8
2007-06-20 07:37:28 51°9.622 2°40.126 246 13.3 245 9
2007-06-20 07:37:33 51°9.615 2°40.099 246 13.4 246 8.8
2007-06-20 07:37:38 51°9.607 2°40.072 246.5 13.4 246 8.8
2007-06-20 07:37:43 51°9.6 2°40.046 247.1 13.3 246 8.7
2007-06-20 07:37:48 51°9.592 2°40.019 247.2 13.4 246 8.7
2007-06-20 07:37:53 51°9.584 2°39.992 247 13.4 245 8.9
2007-06-20 07:37:58 51°9.577 2°39.965 246.8 13.4 246 8.8
2007-06-20 07:38:03 51°9.569 2°39.939 246.5 13.3 244 8.8
2007-06-20 07:38:08 51°9.561 2°39.912 246.1 13.3 245 8.8
2007-06-20 07:38:13 51°9.552 2°39.886 245.5 13.4 244 8.7
2007-06-20 07:38:18 51°9.545 2°39.859 245 13.4 245 8.8
2007-06-20 07:38:23 51°9.537 2°39.833 245.1 13.3 244 9
2007-06-20 07:38:28 51°9.529 2°39.806 245.1 13.4 245 8.7
2007-06-20 07:38:33 51°9.521 2°39.779 245.3 13.4 245 8.8
2007-06-20 07:38:38 51°9.513 2°39.752 245.7 13.4 245 8.9
2007-06-20 07:38:43 51°9.505 2°39.725 245.7 13.4 246 8.8
2007-06-20 07:38:48 51°9.498 2°39.699 246.2 13.4 246 8.7
2007-06-20 07:38:53 51°9.49 2°39.672 246.7 13.4 246 8.7
2007-06-20 07:38:58 51°9.482 2°39.645 246.7 13.3 246 8.6
2007-06-20 07:39:03 51°9.475 2°39.618 247.1 13.3 247 8.8
2007-06-20 07:39:08 51°9.468 2°39.591 247.5 13.4 245 8.7
2007-06-20 07:39:13 51°9.46 2°39.564 247.4 13.4 246 8.8
2007-06-20 07:39:18 51°9.453 2°39.537 247.2 13.4 247 8.9
2007-06-20 07:39:23 51°9.445 2°39.51 247.5 13.3 246 8.8
2007-06-20 07:39:28 51°9.438 2°39.483 247.3 13.3 246 8.8
2007-06-20 07:39:33 51°9.43 2°39.456 247.4 13.3 245 8.9
2007-06-20 07:39:38 51°9.423 2°39.431 246.7 12.7 246 8.9
2007-06-20 07:39:43 51°9.416 2°39.407 246.4 12.1 245 8.8
2007-06-20 07:39:48 51°9.409 2°39.384 246 11.4 244 8.8
2007-06-20 07:39:53 51°9.402 2°39.363 245.5 10.8 243 8.9
2007-06-20 07:39:58 51°9.396 2°39.343 244.6 10 241 9
2007-06-20 07:40:03 51°9.389 2°39.325 242.6 9.3 240 9
2007-06-20 07:40:08 51°9.383 2°39.309 240.9 8.6 238 9.1
2007-06-20 07:40:13 51°9.377 2°39.295 239.1 8 237 9.1
2007-06-20 07:40:18 51°9.371 2°39.282 237.3 7.4 234 9.2
2007-06-20 07:40:23 51°9.365 2°39.27 234.7 6.9 232 9.2
2007-06-20 07:40:28 51°9.359 2°39.259 232.3 6.4 229 9.1
2007-06-20 07:40:33 51°9.354 2°39.249 230.2 6 229 9
2007-06-20 07:40:38 51°9.348 2°39.24 227.7 5.6 225 9.1
2007-06-20 07:40:43 51°9.343 2°39.232 225.7 5.3 226 9.1
2007-06-20 07:40:48 51°9.338 2°39.225 223.9 5 221 9.1
2007-06-20 07:40:53 51°9.333 2°39.217 222.1 4.8 224 9
2007-06-20 07:40:58 51°9.328 2°39.211 220.5 4.5 219 9
2007-06-20 07:41:03 51°9.323 2°39.205 219.1 4.3 220 9
2007-06-20 07:41:08 51°9.319 2°39.2 217.6 4.1 217 9
2007-06-20 07:41:13 51°9.314 2°39.194 216.2 3.9 217 9
2007-06-20 07:41:18 51°9.31 2°39.19 214.6 3.7 214 9.1
2007-06-20 07:41:23 51°9.306 2°39.185 213.3 3.6 215 8.9
2007-06-20 07:41:28 51°9.302 2°39.181 212 3.5 211 8.8
2007-06-20 07:41:33 51°9.298 2°39.177 210.6 3.4 213 8.8
2007-06-20 07:41:38 51°9.294 2°39.174 209.8 3.3 208 8.9
2007-06-20 07:41:43 51°9.29 2°39.17 209.1 3.2 213 8.9
2007-06-20 07:41:48 51°9.286 2°39.167 209.4 3.2 209 8.9
2007-06-20 07:41:53 51°9.283 2°39.163 209.8 3.1 213 8.9
2007-06-20 07:41:58 51°9.279 2°39.16 210.9 3 209 8.8
2007-06-20 07:42:03 51°9.276 2°39.156 211.5 2.9 212 8.8
2007-06-20 07:42:08 51°9.272 2°39.154 212.2 2.8 208 8.7
2007-06-20 07:42:13 51°9.269 2°39.15 212.6 2.8 214 8.9
2007-06-20 07:42:18 51°9.265 2°39.147 213.5 2.7 211 8.8
2007-06-20 07:42:23 51°9.262 2°39.144 214.6 2.6 214 8.8
2007-06-20 07:42:28 51°9.26 2°39.141 215.5 2.6 215 8.8
2007-06-20 07:42:33 51°9.257 2°39.137 216.6 2.5 216 8.8
2007-06-20 07:42:38 51°9.254 2°39.134 217.3 2.5 215 8.8
2007-06-20 07:42:43 51°9.251 2°39.131 218.5 2.4 220 8.8
2007-06-20 07:42:48 51°9.249 2°39.127 219.8 2.4 217 8.8
2007-06-20 07:42:53 51°9.246 2°39.124 220.7 2.4 223 8.9
2007-06-20 07:42:58 51°9.244 2°39.12 222 2.3 220 8.7
2007-06-20 07:43:03 51°9.242 2°39.117 222.9 2.3 225 8.8
2007-06-20 07:43:08 51°9.24 2°39.114 224.2 2.3 224 8.8
2007-06-20 07:43:13 51°9.238 2°39.11 225.4 2.2 227 8.7
2007-06-20 07:43:18 51°9.236 2°39.106 226.8 2.2 228 8.7
2007-06-20 07:43:23 51°9.234 2°39.102 228.3 2.2 231 8.7
2007-06-20 07:43:28 51°9.232 2°39.099 229.5 2.1 232 8.7
2007-06-20 07:43:33 51°9.23 2°39.095 230.9 2.1 233 8.8
2007-06-20 07:43:38 51°9.228 2°39.091 232.2 2.2 234 8.7
2007-06-20 07:43:43 51°9.227 2°39.087 233.7 2.3 238 8.7
2007-06-20 07:43:48 51°9.225 2°39.082 235.2 2.4 235 8.7
2007-06-20 07:43:53 51°9.223 2°39.078 237.3 2.5 241 8.7
2007-06-20 07:43:58 51°9.221 2°39.072 239.4 2.7 240 8.7
2007-06-20 07:44:03 51°9.219 2°39.066 240.9 3 243 8.7
2007-06-20 07:44:08 51°9.217 2°39.06 242.7 3.3 246 8.6
2007-06-20 07:44:13 51°9.215 2°39.053 244.7 3.5 243 8.6
2007-06-20 07:44:18 51°9.213 2°39.045 246.4 3.7 250 8.7
2007-06-20 07:44:23 51°9.211 2°39.037 248.6 4 248 8.7
2007-06-20 07:44:28 51°9.209 2°39.028 250.4 4.4 252 8.7
2007-06-20 07:44:33 51°9.207 2°39.018 252.3 4.7 252 8.7
2007-06-20 07:44:38 51°9.206 2°39.008 254 4.9 255 8.7
2007-06-20 07:44:43 51°9.204 2°38.997 255.1 5 254 8.7
2007-06-20 07:44:48 51°9.202 2°38.987 255.8 5 255 8.7
2007-06-20 07:44:53 51°9.2 2°38.976 256.2 4.9 256 8.7
2007-06-20 07:44:58 51°9.199 2°38.966 256.9 4.8 255 8.7
2007-06-20 07:45:03 51°9.197 2°38.956 257.2 4.7 257 8.8
2007-06-20 07:45:08 51°9.196 2°38.946 257.7 4.6 257 8.7
2007-06-20 07:45:13 51°9.195 2°38.936 257.9 4.5 258 8.7
2007-06-20 07:45:18 51°9.193 2°38.927 258.4 4.5 258 8.7
2007-06-20 07:45:23 51°9.192 2°38.917 258.7 4.3 258 8.7
2007-06-20 07:45:28 51°9.191 2°38.908 259.1 4.2 259 8.7
2007-06-20 07:45:33 51°9.19 2°38.899 259.6 4.1 259 8.7
2007-06-20 07:45:38 51°9.189 2°38.891 259.8 4 259 8.7
2007-06-20 07:45:43 51°9.188 2°38.882 260.4 3.8 259 8.7
2007-06-20 07:45:48 51°9.187 2°38.874 260.7 3.7 261 8.8
2007-06-20 07:45:53 51°9.186 2°38.866 261.2 3.7 260 8.7
2007-06-20 07:45:58 51°9.185 2°38.859 261.6 3.6 262 8.7
2007-06-20 07:46:03 51°9.185 2°38.851 261.8 3.5 260 8.7
2007-06-20 07:46:08 51°9.184 2°38.844 262.2 3.4 263 8.7
2007-06-20 07:46:13 51°9.183 2°38.836 262.6 3.3 262 8.7
2007-06-20 07:46:18 51°9.183 2°38.829 262.8 3.3 262 8.7
2007-06-20 07:46:23 51°9.182 2°38.822 263.1 3.2 261 8.7
2007-06-20 07:46:28 51°9.181 2°38.815 263.1 3.1 263 8.7
2007-06-20 07:46:33 51°9.181 2°38.808 263 3.1 261 8.8
2007-06-20 07:46:38 51°9.18 2°38.802 263.1 3.1 263 8.7
2007-06-20 07:46:43 51°9.18 2°38.795 263.2 3 261 8.9
2007-06-20 07:46:48 51°9.179 2°38.789 263.3 3 264 8.9
2007-06-20 07:46:53 51°9.179 2°38.782 263.3 2.9 262 8.8
2007-06-20 07:46:58 51°9.178 2°38.776 263.3 2.8 265 8.9
2007-06-20 07:47:03 51°9.178 2°38.77 263.3 2.8 264 8.8
2007-06-20 07:47:08 51°9.177 2°38.764 263.3 2.8 263 8.7
2007-06-20 07:47:13 51°9.177 2°38.758 263.4 2.7 265 8.8
2007-06-20 07:47:18 51°9.176 2°38.752 263.5 2.7 263 8.8
2007-06-20 07:47:23 51°9.176 2°38.746 263.5 2.7 263 8.8
2007-06-20 07:47:28 51°9.175 2°38.74 263.5 2.8 264 8.8
2007-06-20 07:47:33 51°9.175 2°38.734 263.4 2.8 263 8.8
2007-06-20 07:47:38 51°9.174 2°38.728 263.3 2.8 264 8.8
2007-06-20 07:47:43 51°9.174 2°38.722 263 2.8 263 8.9
2007-06-20 07:47:48 51°9.173 2°38.715 262.8 2.8 261 8.9
2007-06-20 07:47:53 51°9.173 2°38.709 262.4 2.9 263 8.9
2007-06-20 07:47:58 51°9.172 2°38.703 262 2.8 259 8.8
2007-06-20 07:48:03 51°9.172 2°38.696 261.4 2.8 262 8.9
2007-06-20 07:48:08 51°9.171 2°38.69 260.7 2.9 258 8.9
2007-06-20 07:48:13 51°9.171 2°38.683 259.8 2.9 261 8.9
2007-06-20 07:48:18 51°9.17 2°38.677 259 2.9 258 8.9
2007-06-20 07:48:23 51°9.169 2°38.671 258.1 2.9 258 8.9
2007-06-20 07:48:28 51°9.168 2°38.665 257.2 2.9 258 8.9
2007-06-20 07:48:33 51°9.167 2°38.659 256.4 2.9 255 8.8
2007-06-20 07:48:38 51°9.166 2°38.652 255.4 2.9 255 8.8
2007-06-20 07:48:43 51°9.165 2°38.646 254.3 2.9 254 8.8
2007-06-20 07:48:48 51°9.163 2°38.64 253.1 2.9 254 8.9
2007-06-20 07:48:53 51°9.162 2°38.634 252.1 2.9 251 8.9
2007-06-20 07:48:58 51°9.161 2°38.628 251.3 3 255 8.9
2007-06-20 07:49:03 51°9.159 2°38.622 251 3 250 8.9
2007-06-20 07:49:08 51°9.158 2°38.615 250.5 3 253 8.8
2007-06-20 07:49:13 51°9.157 2°38.609 250.4 3 252 8.9
2007-06-20 07:49:18 51°9.155 2°38.603 250.2 3 251 8.9
2007-06-20 07:49:23 51°9.154 2°38.597 250.2 3 251 8.8
2007-06-20 07:49:28 51°9.153 2°38.591 250.4 3 251 8.9
2007-06-20 07:49:33 51°9.151 2°38.585 250.7 3 252 8.9
2007-06-20 07:49:38 51°9.15 2°38.578 251 3 250 8.9
2007-06-20 07:49:43 51°9.149 2°38.572 251.2 3 253 8.9
2007-06-20 07:49:48 51°9.147 2°38.566 251.8 3 250 9
2007-06-20 07:49:53 51°9.146 2°38.559 252.1 3 252 9
2007-06-20 07:49:58 51°9.144 2°38.553 252.3 3.1 252 8.8
2007-06-20 07:50:03 51°9.143 2°38.547 252.7 3.1 252 8.9
2007-06-20 07:50:08 51°9.142 2°38.54 253.3 3.1 253 8.8
2007-06-20 07:50:13 51°9.141 2°38.534 253.6 3 251 8.8
2007-06-20 07:50:18 51°9.139 2°38.528 253.9 3 252 8.9
2007-06-20 07:50:23 51°9.138 2°38.521 254.2 3 254 8.8
2007-06-20 07:50:28 51°9.137 2°38.514 254.4 3.1 252 8.9
2007-06-20 07:50:33 51°9.136 2°38.508 254.7 3.1 255 8.8
2007-06-20 07:50:38 51°9.134 2°38.501 255 3.1 253 8.8
2007-06-20 07:50:43 51°9.134 2°38.495 255.4 3.1 255 8.9
2007-06-20 07:50:48 51°9.132 2°38.488 255.8 3.1 256 8.8
2007-06-20 07:50:53 51°9.131 2°38.482 256.3 3.1 255 8.8
2007-06-20 07:50:58 51°9.13 2°38.475 256.7 3.1 256 8.9
2007-06-20 07:51:03 51°9.129 2°38.468 257.4 3.1 257 8.8
2007-06-20 07:51:08 51°9.128 2°38.462 258.1 3.1 257 8.9
2007-06-20 07:51:13 51°9.127 2°38.455 258.6 3.1 259 9
2007-06-20 07:51:18 51°9.127 2°38.448 259.3 3.1 259 8.8
2007-06-20 07:51:23 51°9.126 2°38.441 260 3.1 259 8.9
2007-06-20 07:51:28 51°9.125 2°38.434 260.6 3.1 261 8.8
2007-06-20 07:51:33 51°9.124 2°38.428 261.1 3.1 260 8.8
2007-06-20 07:51:38 51°9.124 2°38.421 261.9 3.2 262 8.9
2007-06-20 07:51:43 51°9.123 2°38.414 262.7 3.1 262 8.9
2007-06-20 07:51:48 51°9.123 2°38.407 263.1 3.1 263 8.9
2007-06-20 07:51:53 51°9.122 2°38.4 263.9 3.1 262 9
2007-06-20 07:51:58 51°9.122 2°38.393 264.3 3.2 264 8.8
2007-06-20 07:52:03 51°9.121 2°38.386 265.1 3.1 263 9
2007-06-20 07:52:08 51°9.121 2°38.379 265.7 3.1 265 8.9
2007-06-20 07:52:13 51°9.12 2°38.373 266.1 3.1 266 8.9
2007-06-20 07:52:18 51°9.12 2°38.366 266.7 3.2 264 8.8
2007-06-20 07:52:23 51°9.12 2°38.359 267.1 3.1 267 8.8
2007-06-20 07:52:28 51°9.119 2°38.352 267.6 3.2 264 8.8
2007-06-20 07:52:33 51°9.119 2°38.345 267.7 3.2 268 8.8
2007-06-20 07:52:38 51°9.118 2°38.338 267.7 3.2 264 8.8
2007-06-20 07:52:43 51°9.118 2°38.331 267.5 3.2 268 8.8
2007-06-20 07:52:48 51°9.117 2°38.324 267.2 3.1 263 8.9
2007-06-20 07:52:53 51°9.117 2°38.317 266.4 3.1 267 9.1
2007-06-20 07:52:58 51°9.117 2°38.31 265.9 3.1 264 8.9
2007-06-20 07:53:03 51°9.116 2°38.304 264.9 3.1 264 9
2007-06-20 07:53:08 51°9.116 2°38.297 263.7 3.1 262 9.1
2007-06-20 07:53:13 51°9.115 2°38.29 262.6 3 263 9
2007-06-20 07:53:18 51°9.115 2°38.284 261.8 3 260 9
2007-06-20 07:53:23 51°9.114 2°38.277 260.6 3 262 9.1
2007-06-20 07:53:28 51°9.113 2°38.271 259.1 3 258 9
2007-06-20 07:53:33 51°9.112 2°38.264 257.6 3 259 9
2007-06-20 07:53:38 51°9.111 2°38.258 256.7 3 256 8.9
2007-06-20 07:53:43 51°9.11 2°38.251 255.7 3 257 8.9
2007-06-20 07:53:48 51°9.109 2°38.245 255.1 3 255 9.2
2007-06-20 07:53:53 51°9.108 2°38.238 254.3 3 253 9
2007-06-20 07:53:58 51°9.107 2°38.232 253.4 3 254 9.1
2007-06-20 07:54:03 51°9.106 2°38.226 252.6 3 252 9.2
2007-06-20 07:54:08 51°9.104 2°38.219 251.7 3 251 9
2007-06-20 07:54:13 51°9.103 2°38.213 250.9 3 251 9.1
2007-06-20 07:54:18 51°9.102 2°38.207 250.1 3 250 9
2007-06-20 07:54:23 51°9.1 2°38.2 249.5 3 250 9
2007-06-20 07:54:28 51°9.099 2°38.194 249 3 250 9
2007-06-20 07:54:33 51°9.097 2°38.188 248.7 3 248 9
2007-06-20 07:54:38 51°9.096 2°38.181 248.3 3 250 8.9
2007-06-20 07:54:43 51°9.095 2°38.175 248.2 3 248 8.9
2007-06-20 07:54:48 51°9.093 2°38.169 248.1 3 249 9
2007-06-20 07:54:53 51°9.091 2°38.163 247.6 3 248 9
2007-06-20 07:54:58 51°9.09 2°38.156 247.7 3 248 8.9
2007-06-20 07:55:03 51°9.088 2°38.15 247.7 3 248 8.9
2007-06-20 07:55:08 51°9.087 2°38.144 247.7 3 249 9.1
2007-06-20 07:55:13 51°9.085 2°38.137 247.6 3.1 247 9
2007-06-20 07:55:18 51°9.084 2°38.131 247.5 3.1 248 9.1
2007-06-20 07:55:23 51°9.082 2°38.125 247.7 3 249 8.9
2007-06-20 07:55:28 51°9.08 2°38.118 247.5 3.1 246 8.9
2007-06-20 07:55:33 51°9.079 2°38.112 247.5 3.1 248 9.1
2007-06-20 07:55:38 51°9.077 2°38.106 247.7 3.1 248 8.9
2007-06-20 07:55:43 51°9.075 2°38.1 247.5 3 247 9
2007-06-20 07:55:48 51°9.074 2°38.094 247.5 3 248 9.1
2007-06-20 07:55:53 51°9.072 2°38.088 247.7 3 247 9
2007-06-20 07:55:58 51°9.071 2°38.081 247.9 3 247 9.1
2007-06-20 07:56:03 51°9.069 2°38.075 248.1 3.1 247 9
2007-06-20 07:56:08 51°9.067 2°38.069 248.3 3 248 9
2007-06-20 07:56:13 51°9.066 2°38.063 248.7 3 249 9.1
2007-06-20 07:56:18 51°9.064 2°38.057 249.2 3.1 248 9
2007-06-20 07:56:23 51°9.063 2°38.05 249.5 3.1 250 9
2007-06-20 07:56:28 51°9.061 2°38.044 250.2 3.1 251 9
2007-06-20 07:56:33 51°9.06 2°38.038 251 3.1 251 8.9
2007-06-20 07:56:38 51°9.058 2°38.032 251.6 3.1 251 8.9
2007-06-20 07:56:43 51°9.057 2°38.025 252.5 3.1 254 8.9
2007-06-20 07:56:48 51°9.056 2°38.019 253.2 3 252 8.9
2007-06-20 07:56:53 51°9.055 2°38.012 253.8 3.1 253 9
2007-06-20 07:56:58 51°9.054 2°38.006 254.4 3 253 9
2007-06-20 07:57:03 51°9.052 2°37.999 254.7 3 254 9
2007-06-20 07:57:08 51°9.051 2°37.993 255.4 3.1 254 9
2007-06-20 07:57:13 51°9.05 2°37.986 256.1 3 255 9
2007-06-20 07:57:18 51°9.049 2°37.98 256.7 3 255 9.1
2007-06-20 07:57:23 51°9.048 2°37.973 257.5 3 257 9
2007-06-20 07:57:28 51°9.047 2°37.967 258.5 3.1 258 9.1
2007-06-20 07:57:33 51°9.047 2°37.96 260 3 260 9.1
2007-06-20 07:57:38 51°9.046 2°37.953 261.6 3 262 9
2007-06-20 07:57:43 51°9.045 2°37.947 263.3 3 263 8.9
2007-06-20 07:57:48 51°9.045 2°37.94 265 3 265 8.9
2007-06-20 07:57:53 51°9.045 2°37.934 267 3 266 9
2007-06-20 07:57:58 51°9.045 2°37.927 268.6 3 270 9
2007-06-20 07:58:03 51°9.045 2°37.92 270.1 3 268 9.1
2007-06-20 07:58:08 51°9.045 2°37.914 271.4 3 270 9
2007-06-20 07:58:13 51°9.045 2°37.907 272.2 3 270 9
2007-06-20 07:58:18 51°9.045 2°37.9 272.9 3 272 9.1
2007-06-20 07:58:23 51°9.045 2°37.894 273.4 3 272 9.1
2007-06-20 07:58:28 51°9.045 2°37.887 273.7 3 273 9.1
2007-06-20 07:58:33 51°9.045 2°37.88 274.3 3 273 9.1
2007-06-20 07:58:38 51°9.046 2°37.874 274.4 3 273 9.1
2007-06-20 07:58:43 51°9.046 2°37.867 274.8 3 273 9.1
2007-06-20 07:58:48 51°9.046 2°37.86 274.9 3 274 9.1
2007-06-20 07:58:53 51°9.047 2°37.854 274.9 3 273 9.1
2007-06-20 07:58:58 51°9.047 2°37.847 274.8 3 274 9.2
2007-06-20 07:59:03 51°9.047 2°37.84 274.3 3 273 9.1
2007-06-20 07:59:08 51°9.047 2°37.834 273.7 3 273 9
2007-06-20 07:59:13 51°9.047 2°37.827 273.3 3 273 9.2
2007-06-20 07:59:18 51°9.047 2°37.821 272.7 3 271 9.1
2007-06-20 07:59:23 51°9.047 2°37.814 271.9 3 271 9.2
2007-06-20 07:59:28 51°9.047 2°37.808 271.3 3 269 9.2